Pedregulho, Brazil
Current Conditions -  °F | °C
As of 5:20 AM on Friday 24 Oct 2014 (Local Time) from SBUR Reporting Station
Thunderstorm Thunderstorm  
Wind Chill: 68°   Ceiling: 600
Heat Index: 68°   Visibility: 0.18mi
Dew Point: 68°   Wind: 13mph
Humidity: 100%   Direction: 170°S
Pressure: 30.03"   Gusts: NA
Location:  20.26°S, 47.48°W
Report Text: SBUR 240720Z 17011KT 0300 +TSRA BKN006 BKN040 FEW050CB 20/20 Q1017
Loading
Personal Weather Stations






























Interactive Weather Map
Tropical Storm Tracking
New forecast layout! Learn more

10-Day Weather Forecast

Advertisements
Track Severe Weather on mobile